Time;durP1;ratioP1;P1;durP2;ratioP2;P2;SDS_P1;SDS_P2;PMS_P1;PMS_P2;Temp;Humidity;BMP_temperature;BMP_pressure;BME280_temperature;BME280_humidity;BME280_pressure;Samples;Min_cycle;Max_cycle;Signal;HPM_P1;HPM_P2
2021/03/01 00:00:30;;;;;;;14.32;7.45;;;7.60;93.40;;;;;;5056766;28;20126;-73
2021/03/01 00:02:56;;;;;;;17.70;7.50;;;7.60;93.40;;;;;;5048874;28;20057;-73
2021/03/01 00:05:22;;;;;;;14.35;7.55;;;7.60;93.40;;;;;;5049896;28;20389;-73
2021/03/01 00:07:49;;;;;;;17.73;7.88;;;7.60;93.40;;;;;;5057137;28;20021;-73
2021/03/01 00:10:15;;;;;;;15.45;7.45;;;7.60;93.40;;;;;;5059888;28;20035;-73
2021/03/01 00:12:42;;;;;;;15.10;7.97;;;7.60;93.40;;;;;;5059694;28;20481;-73
2021/03/01 00:15:10;;;;;;;13.50;7.72;;;7.60;93.40;;;;;;5047635;28;20496;-73
2021/03/01 00:17:36;;;;;;;14.07;8.02;;;7.60;93.40;;;;;;5045434;28;20060;-74
2021/03/01 00:20:09;;;;;;;12.90;7.57;;;7.60;93.40;;;;;;5053231;28;20128;-74
2021/03/01 00:22:34;;;;;;;17.25;8.52;;;7.60;93.40;;;;;;5053724;28;20108;-74
2021/03/01 00:25:00;;;;;;;15.15;8.80;;;7.60;93.40;;;;;;5052687;28;20025;-74
2021/03/01 00:27:26;;;;;;;14.65;6.90;;;7.60;93.40;;;;;;5053041;28;20017;-73
2021/03/01 00:29:51;;;;;;;17.38;8.18;;;7.60;93.40;;;;;;5041394;28;20020;-74
2021/03/01 00:32:17;;;;;;;12.75;6.95;;;7.70;93.50;;;;;;5054121;28;20070;-74
2021/03/01 00:34:42;;;;;;;14.30;8.15;;;7.60;93.40;;;;;;5053134;28;20625;-74
2021/03/01 00:37:08;;;;;;;16.08;7.60;;;7.70;93.50;;;;;;5041931;28;20108;-73
2021/03/01 00:39:34;;;;;;;13.05;7.38;;;7.70;93.40;;;;;;5037048;28;20037;-74
2021/03/01 00:42:00;;;;;;;14.88;7.50;;;7.70;93.40;;;;;;5058469;28;20028;-72
2021/03/01 00:44:26;;;;;;;14.93;8.45;;;7.70;93.40;;;;;;5052375;28;20082;-73
2021/03/01 00:46:51;;;;;;;15.38;8.02;;;7.70;93.40;;;;;;5055433;28;20059;-72
2021/03/01 00:49:16;;;;;;;13.80;7.95;;;7.70;93.30;;;;;;5051777;28;20120;-74
2021/03/01 00:51:42;;;;;;;13.98;7.88;;;7.80;93.30;;;;;;5052718;28;20036;-73
2021/03/01 00:54:08;;;;;;;14.73;7.45;;;7.80;93.30;;;;;;5036859;28;20022;-73
2021/03/01 00:56:33;;;;;;;15.18;8.00;;;7.80;93.20;;;;;;5053534;28;20048;-73
2021/03/01 00:58:59;;;;;;;15.73;8.50;;;7.80;93.20;;;;;;5051762;28;20063;-73
2021/03/01 01:01:24;;;;;;;17.58;8.68;;;7.80;93.20;;;;;;5057096;28;20029;-72
2021/03/01 01:03:49;;;;;;;14.20;8.07;;;7.80;93.10;;;;;;5054440;28;20120;-72
2021/03/01 01:06:15;;;;;;;15.45;8.40;;;7.80;93.10;;;;;;5055939;28;20025;-73
2021/03/01 01:08:40;;;;;;;14.52;8.48;;;7.80;93.30;;;;;;5057657;28;20032;-73
2021/03/01 01:11:06;;;;;;;14.88;8.13;;;7.80;93.10;;;;;;5051652;28;20021;-73
2021/03/01 01:13:32;;;;;;;15.98;9.07;;;7.80;93.10;;;;;;5052735;28;20036;-73
2021/03/01 01:15:59;;;;;;;15.52;8.35;;;7.80;93.10;;;;;;5052298;28;20477;-73
2021/03/01 01:18:25;;;;;;;16.40;8.02;;;7.80;93.10;;;;;;5039863;28;20033;-73
2021/03/01 01:20:51;;;;;;;19.45;8.10;;;7.80;93.00;;;;;;5058550;28;20421;-73
2021/03/01 01:23:17;;;;;;;16.08;8.45;;;7.80;93.00;;;;;;5058774;28;20048;-74
2021/03/01 01:25:43;;;;;;;19.50;8.30;;;7.80;93.00;;;;;;5061990;28;20064;-73
2021/03/01 01:28:08;;;;;;;16.30;9.07;;;7.80;93.00;;;;;;5060937;28;20037;-73
2021/03/01 01:30:34;;;;;;;16.17;7.90;;;7.80;93.00;;;;;;5055996;28;20048;-73
2021/03/01 01:33:00;;;;;;;17.58;9.32;;;7.80;93.00;;;;;;5053061;28;20025;-73
2021/03/01 01:35:25;;;;;;;15.60;8.52;;;7.80;93.30;;;;;;5051287;28;20033;-73
2021/03/01 01:37:50;;;;;;;14.02;7.60;;;7.80;93.10;;;;;;5051169;28;20079;-74
2021/03/01 01:40:20;;;;;;;17.25;7.82;;;7.80;93.10;;;;;;5050171;28;20066;-73
2021/03/01 01:42:46;;;;;;;16.10;8.05;;;7.80;93.10;;;;;;5051483;28;20431;-74
2021/03/01 01:45:18;;;;;;;14.95;8.35;;;7.90;93.10;;;;;;5058033;28;20017;-72
2021/03/01 01:47:44;;;;;;;15.25;7.72;;;7.80;93.10;;;;;;5032492;28;20025;-73
2021/03/01 01:50:10;;;;;;;15.35;8.88;;;7.80;93.10;;;;;;5042426;28;20507;-72
2021/03/01 01:52:36;;;;;;;15.57;8.30;;;7.90;93.20;;;;;;5034007;28;20030;-73
2021/03/01 01:55:06;;;;;;;18.25;7.63;;;7.80;93.00;;;;;;5039124;28;20473;-73
2021/03/01 01:57:32;;;;;;;13.75;8.05;;;7.90;93.00;;;;;;5051759;28;20053;-72
2021/03/01 01:59:58;;;;;;;16.95;8.75;;;7.80;93.00;;;;;;5056515;28;20027;-72
2021/03/01 02:02:25;;;;;;;17.25;8.38;;;7.80;93.00;;;;;;5072556;28;20404;-72
2021/03/01 02:05:01;;;;;;;17.27;8.68;;;7.90;93.00;;;;;;5069483;28;20027;-72
2021/03/01 02:08:02;;;;;;;16.83;8.07;;;7.80;92.90;;;;;;5068324;28;20053;-72
2021/03/01 02:10:54;;;;;;;18.25;8.93;;;7.80;92.90;;;;;;5055302;28;20029;-73
2021/03/01 02:13:32;;;;;;;17.95;8.38;;;7.90;92.90;;;;;;5072587;28;20040;-72
2021/03/01 02:16:05;;;;;;;15.13;8.02;;;7.90;92.90;;;;;;5052426;28;20123;-72
2021/03/01 02:18:30;;;;;;;17.98;8.98;;;7.90;92.90;;;;;;5051650;28;20052;-71
2021/03/01 02:21:08;;;;;;;17.73;8.85;;;7.90;92.90;;;;;;5051655;28;20532;-72
2021/03/01 02:23:34;;;;;;;15.23;7.80;;;7.90;92.90;;;;;;5050944;28;20037;-71
2021/03/01 02:26:07;;;;;;;14.40;8.20;;;7.90;92.90;;;;;;5051711;28;20037;-72
2021/03/01 02:28:40;;;;;;;15.57;8.25;;;7.80;92.90;;;;;;5068375;28;20052;-72
2021/03/01 02:31:07;;;;;;;16.60;8.13;;;7.80;92.80;;;;;;5056052;28;20029;-72
2021/03/01 02:33:42;;;;;;;17.13;8.55;;;7.80;92.80;;;;;;5050469;28;20489;-72
2021/03/01 02:36:18;;;;;;;16.67;8.57;;;7.80;92.80;;;;;;5051374;28;20032;-72
2021/03/01 02:38:46;;;;;;;18.23;7.97;;;7.80;92.80;;;;;;5070244;28;20102;-72
2021/03/01 02:41:13;;;;;;;15.48;7.93;;;7.80;92.80;;;;;;5052796;28;20035;-72
2021/03/01 02:43:40;;;;;;;14.52;7.63;;;7.80;92.80;;;;;;5051168;28;20051;-72
2021/03/01 02:46:07;;;;;;;19.13;8.77;;;7.80;92.80;;;;;;5051011;28;20029;-73
2021/03/01 02:48:35;;;;;;;16.38;8.60;;;7.80;92.80;;;;;;5067519;28;20032;-73
2021/03/01 02:51:00;;;;;;;15.80;8.35;;;7.80;92.90;;;;;;5054343;28;20025;-72
2021/03/01 02:53:28;;;;;;;18.00;8.10;;;7.80;92.90;;;;;;5066575;28;20043;-72
2021/03/01 02:55:54;;;;;;;15.13;8.55;;;7.80;92.90;;;;;;5046914;28;20013;-73
2021/03/01 02:58:21;;;;;;;15.60;8.50;;;7.80;92.90;;;;;;5066919;28;20394;-72
2021/03/01 03:00:47;;;;;;;15.80;8.13;;;7.80;92.90;;;;;;5052994;28;20044;-73
2021/03/01 03:03:13;;;;;;;17.60;8.68;;;7.90;92.90;;;;;;5050493;28;20505;-72
2021/03/01 03:05:46;;;;;;;16.10;8.48;;;7.90;92.80;;;;;;5038036;28;20028;-74
2021/03/01 03:08:13;;;;;;;16.38;8.93;;;7.90;92.80;;;;;;5051025;28;20033;-74
2021/03/01 03:10:40;;;;;;;13.82;7.85;;;7.90;92.80;;;;;;5051656;28;20025;-74
2021/03/01 03:13:08;;;;;;;14.35;8.50;;;7.90;92.80;;;;;;5050475;28;20029;-74
2021/03/01 03:15:34;;;;;;;15.98;8.25;;;7.90;92.70;;;;;;5050478;28;20703;-74
2021/03/01 03:18:02;;;;;;;14.80;8.63;;;7.90;92.70;;;;;;5063396;28;20396;-74
2021/03/01 03:20:27;;;;;;;14.63;8.43;;;7.90;92.70;;;;;;5055703;28;20029;-74
2021/03/01 03:22:53;;;;;;;15.68;8.55;;;7.90;92.70;;;;;;5054589;28;20500;-74
2021/03/01 03:25:18;;;;;;;16.85;9.20;;;7.90;92.70;;;;;;5039381;28;20079;-73
2021/03/01 03:27:44;;;;;;;13.10;7.90;;;7.90;92.70;;;;;;5058045;28;20040;-74
2021/03/01 03:30:13;;;;;;;16.65;8.63;;;7.90;92.60;;;;;;5053971;28;20030;-73
2021/03/01 03:32:39;;;;;;;22.98;11.38;;;7.90;92.60;;;;;;5046290;28;20040;-73
2021/03/01 03:35:10;;;;;;;17.13;9.02;;;7.90;92.60;;;;;;5054439;28;20037;-73
2021/03/01 03:37:46;;;;;;;16.38;8.15;;;7.90;92.60;;;;;;5053739;28;20025;-73
2021/03/01 03:40:13;;;;;;;17.45;8.82;;;7.90;92.60;;;;;;5051131;28;20021;-73
2021/03/01 03:42:40;;;;;;;18.48;9.15;;;7.90;92.50;;;;;;5054050;28;20039;-73
2021/03/01 03:45:08;;;;;;;15.38;9.00;;;7.90;92.50;;;;;;5037021;28;20041;-73
2021/03/01 03:47:34;;;;;;;16.92;9.27;;;7.90;92.50;;;;;;5054267;28;20056;-73
2021/03/01 03:50:02;;;;;;;20.50;9.48;;;7.90;92.60;;;;;;5058217;28;20099;-73
2021/03/01 03:52:31;;;;;;;17.58;9.90;;;7.90;92.60;;;;;;5054384;28;20426;-73
2021/03/01 03:54:59;;;;;;;18.35;9.07;;;7.80;92.60;;;;;;5054315;28;20074;-73
2021/03/01 03:57:57;;;;;;;19.73;10.20;;;7.80;92.60;;;;;;5052831;28;20155;-73
2021/03/01 04:00:26;;;;;;;20.10;9.52;;;7.80;92.70;;;;;;5055059;28;20027;-73
2021/03/01 04:02:54;;;;;;;17.35;9.27;;;7.80;92.70;;;;;;5049696;28;20034;-73
2021/03/01 04:05:21;;;;;;;16.55;9.50;;;7.80;92.70;;;;;;5034910;28;20653;-73
2021/03/01 04:07:47;;;;;;;15.43;9.07;;;7.80;92.60;;;;;;5047627;28;20116;-73
2021/03/01 04:10:12;;;;;;;18.55;9.27;;;7.80;92.60;;;;;;5074455;28;20071;-73
2021/03/01 04:12:40;;;;;;;16.80;9.07;;;7.80;92.60;;;;;;5052951;28;20443;-73
2021/03/01 04:15:10;;;;;;;17.20;9.18;;;7.90;92.60;;;;;;5034604;28;20120;-73
2021/03/01 04:17:36;;;;;;;18.13;9.80;;;7.80;92.60;;;;;;5051823;28;20018;-73
2021/03/01 04:20:06;;;;;;;17.10;9.93;;;7.80;92.60;;;;;;5054462;28;20037;-73
2021/03/01 04:22:34;;;;;;;17.58;9.50;;;7.90;92.60;;;;;;5051492;28;20091;-73
2021/03/01 04:25:00;;;;;;;18.15;9.65;;;7.90;92.60;;;;;;5054059;28;20033;-73
2021/03/01 04:27:27;;;;;;;20.67;9.95;;;7.90;92.60;;;;;;5052851;28;20048;-73
2021/03/01 04:29:52;;;;;;;18.58;9.43;;;7.90;92.60;;;;;;5054308;28;20025;-73
2021/03/01 04:32:19;;;;;;;18.23;10.05;;;7.80;92.60;;;;;;5051361;28;20028;-73
2021/03/01 04:34:47;;;;;;;19.35;9.77;;;7.80;92.60;;;;;;5053331;28;20537;-73
2021/03/01 04:37:12;;;;;;;15.98;9.48;;;7.90;92.60;;;;;;5057562;28;20033;-73
2021/03/01 04:39:38;;;;;;;19.65;10.38;;;7.80;92.60;;;;;;5067321;28;20029;-73
2021/03/01 04:42:05;;;;;;;16.83;9.18;;;7.90;92.60;;;;;;5053330;28;20029;-73
2021/03/01 04:44:32;;;;;;;20.65;9.57;;;7.90;92.60;;;;;;5055682;28;20386;-74
2021/03/01 04:46:59;;;;;;;15.32;8.77;;;7.90;92.60;;;;;;5075705;28;20024;-74
2021/03/01 04:49:26;;;;;;;15.80;9.20;;;7.90;92.60;;;;;;5085845;28;20029;-74
2021/03/01 04:51:53;;;;;;;16.67;9.45;;;7.80;92.60;;;;;;5048935;28;20030;-74
2021/03/01 04:54:20;;;;;;;19.40;10.85;;;7.90;92.60;;;;;;5034430;28;20034;-74
2021/03/01 04:56:46;;;;;;;22.13;10.25;;;7.90;92.60;;;;;;5050379;28;20124;-74
2021/03/01 04:59:17;;;;;;;20.38;10.02;;;7.90;92.60;;;;;;5043909;28;20024;-74
2021/03/01 05:01:45;;;;;;;16.85;9.70;;;7.90;92.60;;;;;;5042050;28;20081;-73
2021/03/01 05:04:11;;;;;;;18.10;9.80;;;7.80;92.60;;;;;;5064525;28;20041;-73
2021/03/01 05:06:37;;;;;;;20.40;9.98;;;7.90;92.60;;;;;;5052430;28;20028;-72
2021/03/01 05:09:03;;;;;;;19.85;9.57;;;7.90;92.60;;;;;;5048149;28;20029;-73
2021/03/01 05:11:37;;;;;;;18.70;9.75;;;7.90;92.50;;;;;;5035384;28;20022;-73
2021/03/01 05:14:05;;;;;;;16.70;9.30;;;7.90;92.50;;;;;;5057479;28;20028;-74
2021/03/01 05:16:31;;;;;;;19.48;10.00;;;7.90;92.50;;;;;;5051916;28;20720;-72
2021/03/01 05:18:57;;;;;;;17.23;9.27;;;7.90;92.40;;;;;;5058748;28;20385;-71
2021/03/01 05:21:23;;;;;;;18.65;10.02;;;7.90;92.40;;;;;;5051793;28;20048;-72
2021/03/01 05:23:50;;;;;;;16.88;8.98;;;7.90;92.40;;;;;;5060038;28;20041;-72
2021/03/01 05:26:17;;;;;;;17.58;9.70;;;7.90;92.40;;;;;;5051111;28;20055;-72
2021/03/01 05:28:43;;;;;;;18.10;10.23;;;7.80;92.30;;;;;;5052803;28;20186;-72
2021/03/01 05:31:09;;;;;;;21.00;10.60;;;7.80;92.40;;;;;;5053083;28;20025;-72
2021/03/01 05:33:35;;;;;;;18.17;9.80;;;7.80;92.40;;;;;;5069705;28;20031;-72
2021/03/01 05:36:01;;;;;;;16.63;9.10;;;7.80;92.40;;;;;;5057020;28;20033;-72
2021/03/01 05:38:27;;;;;;;19.85;9.70;;;7.80;92.40;;;;;;5051845;28;20132;-73
2021/03/01 05:40:53;;;;;;;20.25;9.82;;;7.90;92.40;;;;;;5052007;28;20517;-72
2021/03/01 05:43:23;;;;;;;19.60;9.55;;;7.80;92.40;;;;;;5050822;28;20134;-73
2021/03/01 05:45:50;;;;;;;17.35;9.20;;;7.80;92.40;;;;;;5040060;28;20087;-73
2021/03/01 05:48:19;;;;;;;17.10;9.55;;;7.80;92.40;;;;;;5050242;28;20039;-73
2021/03/01 05:50:46;;;;;;;19.50;9.73;;;7.80;92.40;;;;;;5052607;28;20025;-73
2021/03/01 05:53:19;;;;;;;18.58;9.63;;;7.80;92.40;;;;;;5066018;28;20024;-72
2021/03/01 05:55:46;;;;;;;18.85;9.80;;;7.80;92.50;;;;;;5054496;28;20558;-73
2021/03/01 05:58:13;;;;;;;17.75;9.48;;;7.80;92.40;;;;;;5048501;28;20467;-73
2021/03/01 06:00:40;;;;;;;18.60;9.85;;;7.80;92.40;;;;;;5052383;28;20060;-74
2021/03/01 06:03:05;;;;;;;20.17;10.15;;;7.90;92.50;;;;;;5065125;28;20029;-74
2021/03/01 06:05:31;;;;;;;18.98;10.55;;;7.80;92.40;;;;;;5067558;28;20078;-74
2021/03/01 06:07:57;;;;;;;18.10;9.98;;;7.90;92.50;;;;;;5051310;28;20081;-72
2021/03/01 06:10:23;;;;;;;20.15;10.45;;;7.90;92.50;;;;;;5052567;28;20017;-74
2021/03/01 06:12:49;;;;;;;18.50;9.65;;;7.90;92.40;;;;;;5061799;28;20035;-74
2021/03/01 06:15:15;;;;;;;15.80;8.98;;;7.90;92.40;;;;;;5072082;28;20020;-74
2021/03/01 06:17:40;;;;;;;18.10;10.25;;;7.90;92.40;;;;;;5052496;28;20108;-74
2021/03/01 06:20:10;;;;;;;18.40;10.18;;;7.90;92.40;;;;;;5051752;28;20057;-74
2021/03/01 06:22:43;;;;;;;18.65;10.15;;;7.90;92.50;;;;;;5060076;28;20080;-77
2021/03/01 06:25:11;;;;;;;18.30;9.13;;;7.90;92.50;;;;;;5053165;28;20506;-77
2021/03/01 06:27:50;;;;;;;19.98;10.38;;;7.90;92.50;;;;;;5052547;28;20032;-72
2021/03/01 06:30:17;;;;;;;17.02;9.60;;;7.90;92.50;;;;;;5071953;28;20508;-74
2021/03/01 06:32:43;;;;;;;18.80;9.88;;;7.90;92.50;;;;;;5049648;28;20036;-73
2021/03/01 06:35:29;;;;;;;19.58;10.20;;;7.90;92.60;;;;;;5039501;28;20075;-73
2021/03/01 06:38:35;;;;;;;20.15;9.88;;;7.90;92.50;;;;;;5051133;28;20450;-73
2021/03/01 06:41:17;;;;;;;18.52;9.43;;;7.90;92.50;;;;;;5036013;28;20547;-72
2021/03/01 06:43:57;;;;;;;16.42;8.95;;;8.00;92.50;;;;;;5051163;28;20579;-73
2021/03/01 06:46:24;;;;;;;17.80;10.20;;;8.00;92.50;;;;;;5043037;28;20491;-73
2021/03/01 06:48:50;;;;;;;16.10;9.05;;;7.90;92.50;;;;;;5050318;28;20746;-73
2021/03/01 06:51:16;;;;;;;22.33;10.27;;;7.90;92.50;;;;;;5052884;28;20060;-73
2021/03/01 06:53:41;;;;;;;17.40;9.25;;;7.90;92.60;;;;;;5049428;28;20051;-73
2021/03/01 06:56:11;;;;;;;17.52;9.95;;;7.90;92.50;;;;;;5050581;28;20422;-73
2021/03/01 06:58:45;;;;;;;21.25;9.85;;;8.00;92.50;;;;;;5031326;28;20065;-72
2021/03/01 07:01:17;;;;;;;19.83;10.35;;;8.10;92.50;;;;;;5038178;28;20028;-74
2021/03/01 07:03:45;;;;;;;19.33;9.68;;;8.10;92.40;;;;;;5058298;28;20097;-75
2021/03/01 07:06:11;;;;;;;17.27;10.05;;;8.20;92.30;;;;;;5050711;28;20116;-75
2021/03/01 07:08:41;;;;;;;17.45;9.23;;;8.20;92.30;;;;;;5060046;28;20110;-73
2021/03/01 07:11:21;;;;;;;20.13;10.32;;;8.30;92.30;;;;;;5051015;28;20036;-74
2021/03/01 07:13:47;;;;;;;22.50;10.20;;;8.30;92.20;;;;;;5051615;28;20497;-74
2021/03/01 07:16:13;;;;;;;18.25;10.00;;;8.30;92.10;;;;;;5031631;28;20033;-73
2021/03/01 07:18:43;;;;;;;19.58;10.65;;;8.40;92.10;;;;;;5068912;28;20033;-74
2021/03/01 07:21:13;;;;;;;23.05;11.15;;;8.40;92.00;;;;;;5075470;28;20024;-73
2021/03/01 07:23:42;;;;;;;18.08;10.15;;;8.40;92.00;;;;;;5070108;28;20109;-73
2021/03/01 07:26:10;;;;;;;22.40;10.60;;;8.50;91.90;;;;;;5058323;28;20096;-74
2021/03/01 07:28:38;;;;;;;19.65;9.82;;;8.50;91.90;;;;;;5048459;28;20029;-74
2021/03/01 07:31:06;;;;;;;17.88;9.98;;;8.60;91.80;;;;;;5050218;28;20095;-73
2021/03/01 07:33:31;;;;;;;18.75;9.70;;;8.60;91.80;;;;;;5066754;28;20024;-74
2021/03/01 07:35:57;;;;;;;19.95;10.48;;;8.60;91.80;;;;;;5069797;28;20473;-74
2021/03/01 07:38:23;;;;;;;20.92;10.90;;;8.70;91.80;;;;;;5049839;28;20033;-74
2021/03/01 07:40:49;;;;;;;22.63;10.55;;;8.70;91.70;;;;;;5050605;28;20504;-74
2021/03/01 07:43:15;;;;;;;18.73;9.95;;;8.80;91.60;;;;;;5057230;28;20401;-74
2021/03/01 07:45:41;;;;;;;20.25;11.35;;;8.80;91.50;;;;;;5039332;28;20033;-74
2021/03/01 07:48:16;;;;;;;20.42;10.88;;;8.80;91.50;;;;;;5045262;28;20037;-73
2021/03/01 07:50:45;;;;;;;20.67;10.93;;;8.90;91.40;;;;;;5036156;28;20025;-81
2021/03/01 07:53:43;;;;;;;20.92;11.13;;;8.90;91.30;;;;;;5053563;28;20029;-75
2021/03/01 07:56:24;;;;;;;18.83;10.43;;;8.90;91.30;;;;;;5051222;28;20082;-80
2021/03/01 07:58:57;;;;;;;22.42;11.93;;;9.00;91.20;;;;;;5049828;28;20044;-78
2021/03/01 08:01:24;;;;;;;22.65;11.30;;;9.00;91.20;;;;;;5049258;28;20029;-80
2021/03/01 08:03:50;;;;;;;23.38;11.23;;;9.10;91.10;;;;;;5031203;28;20128;-77
2021/03/01 08:06:15;;;;;;;24.98;11.38;;;9.10;90.90;;;;;;5032623;28;20420;-78
2021/03/01 08:08:42;;;;;;;17.80;10.50;;;9.20;90.80;;;;;;5055395;28;20049;-75
2021/03/01 08:11:08;;;;;;;21.60;11.38;;;9.20;90.80;;;;;;5044070;28;20025;-75
2021/03/01 08:13:34;;;;;;;21.98;10.80;;;9.30;90.70;;;;;;5063976;28;20032;-76
2021/03/01 08:16:19;;;;;;;19.45;10.65;;;9.30;90.50;;;;;;5056828;28;20021;-76
2021/03/01 08:18:52;;;;;;;19.58;11.40;;;9.40;90.20;;;;;;5065596;28;20071;-77
2021/03/01 08:21:18;;;;;;;17.58;10.85;;;9.40;90.20;;;;;;5049153;28;20093;-76
2021/03/01 08:23:43;;;;;;;18.42;10.45;;;9.40;90.10;;;;;;5056018;28;20350;-77
2021/03/01 08:26:09;;;;;;;19.98;11.68;;;9.40;89.90;;;;;;5053970;28;20021;-77
2021/03/01 08:28:35;;;;;;;23.25;11.43;;;9.50;89.70;;;;;;5053730;28;20393;-76
2021/03/01 08:31:10;;;;;;;27.20;13.73;;;9.50;89.50;;;;;;5052769;28;20041;-76
2021/03/01 08:33:36;;;;;;;25.38;14.48;;;9.60;88.80;;;;;;5054192;28;20108;-77
2021/03/01 08:36:01;;;;;;;19.98;11.50;;;9.70;88.60;;;;;;5053936;28;20441;-76
2021/03/01 08:38:53;;;;;;;19.08;11.15;;;9.60;87.90;;;;;;5057850;28;20029;-76
2021/03/01 08:41:39;;;;;;;24.17;12.70;;;9.70;87.80;;;;;;5068337;28;20428;-76
2021/03/01 08:44:19;;;;;;;22.08;13.68;;;9.80;87.20;;;;;;5068745;28;20086;-77
2021/03/01 08:46:45;;;;;;;22.98;12.90;;;9.80;86.70;;;;;;5061310;28;20032;-76
2021/03/01 08:49:11;;;;;;;18.10;10.20;;;9.80;86.30;;;;;;5060246;28;20025;-76
2021/03/01 08:51:36;;;;;;;19.23;10.25;;;9.90;85.80;;;;;;5063838;28;20021;-77
2021/03/01 08:54:02;;;;;;;17.77;9.38;;;10.00;85.60;;;;;;5063514;28;20016;-77
2021/03/01 08:56:27;;;;;;;16.15;9.07;;;10.10;85.00;;;;;;5062023;28;20025;-77
2021/03/01 08:58:53;;;;;;;18.65;9.00;;;10.00;85.10;;;;;;5060016;28;20052;-77
2021/03/01 09:01:19;;;;;;;18.77;9.30;;;10.10;84.50;;;;;;5062477;28;20450;-77
2021/03/01 09:03:46;;;;;;;17.00;9.65;;;10.10;84.40;;;;;;5056167;28;20037;-77
2021/03/01 09:06:13;;;;;;;18.70;10.00;;;10.10;84.00;;;;;;5052998;28;20032;-77
2021/03/01 09:08:53;;;;;;;17.10;10.02;;;10.10;83.40;;;;;;5034803;28;20083;-77
2021/03/01 09:11:24;;;;;;;17.27;10.18;;;10.10;82.90;;;;;;5053220;28;20033;-76
2021/03/01 09:13:52;;;;;;;18.83;11.80;;;10.10;82.80;;;;;;5051427;28;20027;-76
2021/03/01 09:16:23;;;;;;;18.95;11.48;;;10.20;82.30;;;;;;5068709;28;20056;-76
2021/03/01 09:18:50;;;;;;;18.33;10.85;;;10.10;82.00;;;;;;5067657;28;20064;-76
2021/03/01 09:21:18;;;;;;;18.55;10.02;;;10.20;82.50;;;;;;5053191;28;20373;-76
2021/03/01 09:23:46;;;;;;;17.45;11.00;;;10.20;81.20;;;;;;5049216;28;20033;-76
2021/03/01 09:26:39;;;;;;;19.27;10.05;;;10.20;81.60;;;;;;5052699;28;20032;-76
2021/03/01 09:29:09;;;;;;;16.77;10.82;;;10.30;82.00;;;;;;5049413;28;20699;-76
2021/03/01 09:31:53;;;;;;;16.98;9.75;;;10.30;81.40;;;;;;5047092;28;20392;-76
2021/03/01 09:34:22;;;;;;;18.20;10.30;;;10.40;81.10;;;;;;5050085;28;20036;-77
2021/03/01 09:36:48;;;;;;;17.10;10.40;;;10.40;81.10;;;;;;5037695;28;20291;-76
2021/03/01 09:39:19;;;;;;;20.15;11.95;;;10.60;81.00;;;;;;5044021;28;20424;-76
2021/03/01 09:41:46;;;;;;;18.42;11.30;;;10.50;80.00;;;;;;5052415;28;20033;-76
2021/03/01 09:44:19;;;;;;;21.52;11.95;;;10.50;79.90;;;;;;5050383;28;20089;-76
2021/03/01 09:46:44;;;;;;;14.85;9.75;;;10.60;80.00;;;;;;5035937;28;20099;-76
2021/03/01 09:49:10;;;;;;;18.90;9.80;;;10.60;79.30;;;;;;5052940;28;20436;-76
2021/03/01 09:51:37;;;;;;;16.67;8.95;;;10.60;79.60;;;;;;5045020;28;20432;-76
2021/03/01 09:54:06;;;;;;;15.48;8.80;;;10.60;79.40;;;;;;5032752;28;20034;-76
2021/03/01 09:56:39;;;;;;;18.52;10.63;;;10.70;79.20;;;;;;5045373;28;20037;-77
2021/03/01 09:59:05;;;;;;;20.67;12.18;;;10.70;78.60;;;;;;5071761;28;20048;-77
2021/03/01 10:01:31;;;;;;;21.13;12.88;;;10.80;78.70;;;;;;5066266;28;20029;-76
2021/03/01 10:03:56;;;;;;;25.25;14.68;;;10.70;78.00;;;;;;5054451;28;20390;-76
2021/03/01 10:06:34;;;;;;;23.10;13.98;;;10.70;77.20;;;;;;5052844;28;20055;-76
2021/03/01 10:09:06;;;;;;;24.77;14.40;;;10.70;76.10;;;;;;5053223;28;20052;-76
2021/03/01 10:11:31;;;;;;;21.95;14.30;;;10.60;76.50;;;;;;5050843;28;20017;-76
2021/03/01 10:14:08;;;;;;;21.08;14.23;;;10.40;76.80;;;;;;5052468;28;20503;-76
2021/03/01 10:16:39;;;;;;;23.95;14.07;;;10.50;77.80;;;;;;5051762;28;20028;-76
2021/03/01 10:19:17;;;;;;;21.75;13.55;;;10.40;77.60;;;;;;5052272;28;20060;-76
2021/03/01 10:21:44;;;;;;;19.95;12.35;;;10.50;77.60;;;;;;5052067;28;20028;-76
2021/03/01 10:24:12;;;;;;;22.05;10.48;;;10.40;77.50;;;;;;5051523;28;20068;-76
2021/03/01 10:26:57;;;;;;;14.30;9.70;;;10.50;77.70;;;;;;5051697;28;20096;-73
2021/03/01 10:29:31;;;;;;;26.98;11.95;;;10.50;77.60;;;;;;5050892;28;20040;-74
2021/03/01 10:31:57;;;;;;;15.25;9.80;;;10.60;77.30;;;;;;5046094;28;20032;-74
2021/03/01 10:34:35;;;;;;;19.67;11.10;;;10.50;78.20;;;;;;5050269;28;20024;-74
2021/03/01 10:37:02;;;;;;;18.88;10.98;;;10.60;77.70;;;;;;5047378;28;20043;-73
2021/03/01 10:39:37;;;;;;;20.73;11.90;;;10.70;77.30;;;;;;5042496;28;20079;-72
2021/03/01 10:42:12;;;;;;;19.52;11.65;;;10.70;77.00;;;;;;5033074;28;20057;-73
2021/03/01 10:44:43;;;;;;;20.60;11.23;;;10.70;77.20;;;;;;5031487;28;20056;-73
2021/03/01 10:47:26;;;;;;;19.45;11.00;;;10.70;76.70;;;;;;5050468;28;20025;-73
2021/03/01 10:49:56;;;;;;;17.15;10.20;;;10.80;76.40;;;;;;5050580;28;20552;-73
2021/03/01 10:52:24;;;;;;;18.23;9.82;;;10.80;76.10;;;;;;5050885;28;20036;-73
2021/03/01 10:54:51;;;;;;;17.58;11.05;;;10.80;75.40;;;;;;5050964;28;20029;-74
2021/03/01 10:57:16;;;;;;;16.05;9.40;;;10.80;75.70;;;;;;5051380;28;20505;-74
2021/03/01 10:59:42;;;;;;;16.45;9.07;;;10.70;76.00;;;;;;5050680;28;20090;-73
2021/03/01 11:02:08;;;;;;;20.52;10.13;;;10.80;75.80;;;;;;5051542;28;20100;-72
2021/03/01 11:04:34;;;;;;;20.52;9.88;;;10.80;75.10;;;;;;5050394;28;20080;-74
2021/03/01 11:07:00;;;;;;;21.17;10.23;;;10.70;75.10;;;;;;5054793;28;20050;-74
2021/03/01 11:09:26;;;;;;;17.90;10.05;;;10.70;74.90;;;;;;5060925;28;20382;-73
2021/03/01 11:11:54;;;;;;;16.92;9.18;;;10.60;75.00;;;;;;5049732;28;20389;-73
2021/03/01 11:14:21;;;;;;;16.20;9.40;;;10.60;74.90;;;;;;5049031;28;20017;-73
2021/03/01 11:16:47;;;;;;;13.23;8.65;;;10.50;75.00;;;;;;5050379;28;20048;-73
2021/03/01 11:19:14;;;;;;;16.88;9.88;;;10.50;74.80;;;;;;5050816;28;20021;-73
2021/03/01 11:21:40;;;;;;;16.58;9.40;;;10.50;74.80;;;;;;5050258;28;20037;-74
2021/03/01 11:24:07;;;;;;;18.70;9.68;;;10.40;75.30;;;;;;5059372;28;20041;-73
2021/03/01 11:26:33;;;;;;;16.73;8.80;;;10.50;75.50;;;;;;5050590;28;20029;-72
2021/03/01 11:28:59;;;;;;;15.93;9.20;;;10.50;75.20;;;;;;5057799;28;20032;-77
2021/03/01 11:31:25;;;;;;;14.07;8.55;;;10.50;75.10;;;;;;5050235;28;20074;-73
2021/03/01 11:33:51;;;;;;;15.48;8.20;;;10.50;75.30;;;;;;5046236;28;20113;-74
2021/03/01 11:36:17;;;;;;;16.73;8.65;;;10.40;75.50;;;;;;5048820;28;20458;-73
2021/03/01 11:38:43;;;;;;;14.10;8.77;;;10.40;75.50;;;;;;5045377;28;20104;-72
2021/03/01 11:41:12;;;;;;;15.02;8.63;;;10.50;75.40;;;;;;5043234;28;20121;-72
2021/03/01 11:43:37;;;;;;;15.20;8.52;;;10.60;74.90;;;;;;5051077;28;20051;-74
2021/03/01 11:46:02;;;;;;;15.52;8.80;;;10.60;74.70;;;;;;5055207;28;20104;-75
2021/03/01 11:48:28;;;;;;;14.20;8.57;;;10.60;74.80;;;;;;5068127;28;20033;-74
2021/03/01 11:50:54;;;;;;;12.98;8.73;;;10.60;75.00;;;;;;5053226;28;20590;-71
2021/03/01 11:53:20;;;;;;;15.63;9.07;;;10.60;74.80;;;;;;5051322;28;20048;-72
2021/03/01 11:55:46;;;;;;;14.90;8.95;;;10.60;74.70;;;;;;5054821;28;20055;-72
2021/03/01 11:58:12;;;;;;;11.73;7.60;;;10.60;75.10;;;;;;5056525;28;20036;-73
2021/03/01 12:00:40;;;;;;;15.95;9.13;;;10.70;75.30;;;;;;5054599;28;20112;-73
2021/03/01 12:03:07;;;;;;;14.23;9.18;;;10.70;74.90;;;;;;5057218;28;20131;-73
2021/03/01 12:05:34;;;;;;;13.85;8.85;;;10.70;74.90;;;;;;5054849;28;20489;-73
2021/03/01 12:08:00;;;;;;;14.52;8.68;;;10.70;74.80;;;;;;5052501;28;20154;-73
2021/03/01 12:10:25;;;;;;;12.23;8.18;;;10.70;74.40;;;;;;5053606;28;20122;-72
2021/03/01 12:12:51;;;;;;;12.73;7.82;;;10.70;74.20;;;;;;5057635;28;20760;-73
2021/03/01 12:15:17;;;;;;;15.35;8.77;;;10.60;74.50;;;;;;5053542;28;20540;-73
2021/03/01 12:17:42;;;;;;;13.10;8.75;;;10.70;74.50;;;;;;5049871;28;20032;-73
2021/03/01 12:20:08;;;;;;;16.92;8.70;;;10.70;74.40;;;;;;5033315;28;20474;-73
2021/03/01 12:22:34;;;;;;;15.73;9.38;;;10.70;74.20;;;;;;5052119;28;20120;-73
2021/03/01 12:25:00;;;;;;;13.68;8.93;;;10.70;74.10;;;;;;5065270;28;20446;-73
2021/03/01 12:27:26;;;;;;;13.38;8.93;;;10.70;74.10;;;;;;5079423;28;20060;-72
2021/03/01 12:29:52;;;;;;;14.10;9.55;;;10.70;74.30;;;;;;5053629;28;20068;-71
2021/03/01 12:32:18;;;;;;;12.95;8.30;;;10.70;74.50;;;;;;5061729;28;20024;-72
2021/03/01 12:34:43;;;;;;;15.48;8.88;;;10.80;75.80;;;;;;5053919;28;20333;-73
2021/03/01 12:37:09;;;;;;;12.13;7.55;;;10.80;75.10;;;;;;5049426;28;20374;-65
2021/03/01 12:39:36;;;;;;;12.20;5.88;;;11.10;77.60;;;;;;5069315;28;20112;-64
2021/03/01 12:42:02;;;;;;;9.85;5.72;;;11.40;80.40;;;;;;5058120;28;20025;-65
2021/03/01 12:44:27;;;;;;;16.17;8.70;;;11.80;81.60;;;;;;5040285;28;20037;-65
2021/03/01 12:46:53;;;;;;;16.75;10.38;;;12.10;77.50;;;;;;5049876;28;20036;-74